Time;durP1;ratioP1;P1;durP2;ratioP2;P2;SDS_P1;SDS_P2;PMS_P1;PMS_P2;Temp;Humidity;BMP_temperature;BMP_pressure;BME280_temperature;BME280_humidity;BME280_pressure;Samples;Min_cycle;Max_cycle;Signal;HPM_P1;HPM_P2
2022/04/15 00:01:15;;;;;;;1999.90;999.90;;;;;;;9.14;58.57;95345.84;5029435;28;20212;-86
2022/04/15 00:03:41;;;;;;;1999.90;999.90;;;;;;;8.90;58.31;95302.41;5027341;28;20243;-86
2022/04/15 00:06:08;;;;;;;1999.90;999.90;;;;;;;8.85;57.11;95302.16;5020814;28;20168;-86
2022/04/15 00:08:34;;;;;;;1999.90;999.90;;;;;;;8.90;57.87;95318.19;5024745;28;20169;-86
2022/04/15 00:11:00;;;;;;;1999.90;999.90;;;;;;;9.08;58.24;95348.22;5022271;28;20164;-86
2022/04/15 00:13:29;;;;;;;1999.90;999.90;;;;;;;8.79;58.46;95302.91;5008318;28;20731;-86
2022/04/15 00:15:55;;;;;;;1999.90;999.90;;;;;;;8.80;58.47;95325.56;5010872;28;20187;-86
2022/04/15 00:18:20;;;;;;;1999.90;999.90;;;;;;;8.20;59.00;95241.00;5026040;28;20171;-86
2022/04/15 00:20:46;;;;;;;1999.90;999.90;;;;;;;8.73;59.36;95335.19;5005587;28;20645;-86
2022/04/15 00:23:11;;;;;;;1999.90;999.90;;;;;;;8.77;59.86;95345.09;5022061;28;20183;-85
2022/04/15 00:25:37;;;;;;;1999.90;999.90;;;;;;;8.60;59.49;95312.22;5007844;28;20179;-86
2022/04/15 00:28:02;;;;;;;1999.90;999.90;;;;;;;8.43;60.07;95292.47;5026466;28;20565;-85
2022/04/15 00:30:28;;;;;;;1999.90;999.90;;;;;;;8.59;60.22;95323.72;5024134;28;20195;-86
2022/04/15 00:32:53;;;;;;;1999.90;999.90;;;;;;;8.43;60.10;95313.47;5024203;28;20184;-85
2022/04/15 00:35:19;;;;;;;1999.90;999.90;;;;;;;8.39;60.25;95307.00;5023878;28;20178;-86
2022/04/15 00:37:46;;;;;;;1999.90;999.90;;;;;;;8.53;59.77;95351.53;5023460;28;20242;-86
2022/04/15 00:40:12;;;;;;;1999.90;999.90;;;;;;;8.33;60.49;95304.09;5008608;28;20200;-85
2022/04/15 00:42:38;;;;;;;1999.90;999.90;;;;;;;8.38;60.47;95316.66;5025336;28;20169;-85
2022/04/15 00:45:04;;;;;;;1999.90;999.90;;;;;;;8.34;60.39;95310.16;5007090;28;20180;-86
2022/04/15 00:47:53;;;;;;;1999.90;999.90;;;;;;;8.57;59.16;95342.28;5016364;28;20179;-86
2022/04/15 00:50:33;;;;;;;1999.90;999.90;;;;;;;8.53;59.94;95341.03;5004722;28;20674;-86
2022/04/15 00:53:06;;;;;;;1999.90;999.90;;;;;;;8.29;61.36;95297.56;5025584;28;20168;-85
2022/04/15 00:55:32;;;;;;;1999.90;999.90;;;;;;;8.56;61.07;95348.50;5024461;28;20242;-85
2022/04/15 00:58:00;;;;;;;1999.90;999.90;;;;;;;7.88;60.60;95246.66;5020211;28;20168;-84
2022/04/15 01:00:27;;;;;;;1999.90;999.90;;;;;;;8.54;60.45;95353.16;5003688;28;20232;-85
2022/04/15 01:02:55;;;;;;;1999.90;999.90;;;;;;;8.47;59.48;95352.28;5021683;28;20231;-85
2022/04/15 01:05:21;;;;;;;1999.90;999.90;;;;;;;8.51;60.11;95355.31;5025691;28;20252;-85
2022/04/15 01:07:52;;;;;;;1999.90;999.90;;;;;;;8.51;60.82;95348.28;5025538;28;20160;-86
2022/04/15 01:10:19;;;;;;;1999.90;999.90;;;;;;;8.46;59.99;95349.84;5026143;28;20180;-87
2022/04/15 01:12:54;;;;;;;1999.90;999.90;;;;;;;8.25;59.62;95332.22;5003989;28;20160;-88
2022/04/15 01:15:24;;;;;;;1999.90;999.90;;;;;;;8.26;60.34;95336.47;5023628;28;20717;-87
2022/04/15 01:17:50;;;;;;;1999.90;999.90;;;;;;;8.18;60.04;95316.41;5007316;28;20560;-88
2022/04/15 01:20:17;;;;;;;1999.90;999.90;;;;;;;8.21;60.63;95344.06;5025947;28;20192;-87
2022/04/15 01:22:44;;;;;;;1999.90;999.90;;;;;;;7.93;61.05;95297.56;5003996;28;20164;-88
2022/04/15 01:25:14;;;;;;;1999.90;999.90;;;;;;;8.03;61.27;95320.88;5007680;28;20577;-87
2022/04/15 01:27:43;;;;;;;1999.90;999.90;;;;;;;8.01;61.06;95317.63;5002905;28;20255;-87
2022/04/15 01:30:15;;;;;;;1999.90;999.90;;;;;;;7.97;61.44;95325.03;5005060;28;20168;-87
2022/04/15 01:32:41;;;;;;;1999.90;999.90;;;;;;;7.72;61.77;95278.34;5004348;28;20234;-88
2022/04/15 01:35:07;;;;;;;1999.90;999.90;;;;;;;7.99;62.25;95326.66;5018759;28;20180;-86
2022/04/15 01:37:35;;;;;;;1999.90;999.90;;;;;;;7.68;62.41;95271.84;5024920;28;20190;-86
2022/04/15 01:40:02;;;;;;;1999.90;999.90;;;;;;;8.01;62.30;95325.47;5023257;28;20196;-87
2022/04/15 01:42:27;;;;;;;1999.90;999.90;;;;;;;7.72;61.98;95288.81;5018452;28;20259;-87
2022/04/15 01:44:52;;;;;;;1999.90;999.90;;;;;;;7.83;62.12;95318.00;5023351;28;20981;-86
2022/04/15 01:47:18;;;;;;;1999.90;999.90;;;;;;;7.63;62.32;95275.00;5004302;28;20176;-86
2022/04/15 01:49:43;;;;;;;1999.90;999.90;;;;;;;7.44;62.73;95249.34;5000583;28;20681;-85
2022/04/15 01:52:09;;;;;;;1999.90;999.90;;;;;;;7.56;62.62;95263.63;5021948;28;20177;-89
2022/04/15 01:54:35;;;;;;;1999.90;999.90;;;;;;;7.56;62.48;95258.38;5006715;28;20660;-89
2022/04/15 01:57:01;;;;;;;1999.90;999.90;;;;;;;7.45;62.60;95241.31;5023538;28;20196;-90
2022/04/15 01:59:27;;;;;;;1999.90;999.90;;;;;;;7.40;62.95;95235.00;5022349;28;20161;-91
2022/04/15 02:01:55;;;;;;;43.90;39.80;;;;;;;7.62;63.09;95269.94;5006046;28;20231;-90
2022/04/15 02:04:25;;;;;;;54.43;35.10;;;;;;;7.95;62.96;95320.97;5015576;28;20179;-91
2022/04/15 02:06:51;;;;;;;33.30;13.87;;;;;;;7.71;62.72;95281.94;5010239;28;20196;-91
2022/04/15 02:09:17;;;;;;;1999.90;999.90;;;;;;;7.96;63.08;95320.75;5000459;28;20222;-90
2022/04/15 02:11:43;;;;;;;1999.90;999.90;;;;;;;7.58;63.27;95257.22;4998997;28;20180;-91
2022/04/15 02:14:09;;;;;;;212.03;201.27;;;;;;;7.88;63.16;95313.00;5002269;28;20657;-90
2022/04/15 02:16:35;;;;;;;245.47;232.07;;;;;;;7.88;63.77;95313.00;5010510;28;20259;-90
2022/04/15 02:19:00;;;;;;;218.27;206.70;;;;;;;7.35;63.82;95246.00;5013644;28;20172;-91
2022/04/15 02:21:26;;;;;;;183.67;173.87;;;;;;;7.80;64.22;95309.66;5012628;28;20234;-90
2022/04/15 02:23:51;;;;;;;164.23;155.27;;;;;;;7.37;64.27;95243.22;5013095;28;20205;-90
2022/04/15 02:26:17;;;;;;;155.23;146.97;;;;;;;7.73;64.22;95306.97;5005988;28;20172;-90
2022/04/15 02:28:42;;;;;;;125.80;119.10;;;;;;;7.30;63.71;95237.09;5025030;28;20237;-90
2022/04/15 02:31:08;;;;;;;152.63;144.33;;;;;;;7.40;63.91;95263.81;5010915;28;20161;-90
2022/04/15 02:33:33;;;;;;;113.50;106.57;;;;;;;7.18;63.79;95231.47;5004832;28;20540;-90
2022/04/15 02:35:59;;;;;;;78.27;72.97;;;;;;;7.59;64.32;95299.94;5012702;28;20571;-90
2022/04/15 02:38:24;;;;;;;91.83;86.23;;;;;;;7.20;64.46;95248.63;5029528;28;20175;-90
2022/04/15 02:40:50;;;;;;;87.03;81.23;;;;;;;7.23;64.48;95257.13;5008738;28;20188;-90
2022/04/15 02:43:15;;;;;;;84.43;79.03;;;;;;;7.32;65.09;95271.75;5011146;28;20164;-90
2022/04/15 02:45:42;;;;;;;81.90;76.10;;;;;;;7.20;64.46;95253.88;5011241;28;20530;-91
2022/04/15 02:48:07;;;;;;;72.10;66.90;;;;;;;7.59;64.00;95302.56;5007523;28;20219;-92
2022/04/15 02:50:33;;;;;;;59.13;54.97;;;;;;;7.22;64.26;95250.25;5007594;28;20645;-92
2022/04/15 02:52:59;;;;;;;57.63;53.77;;;;;;;7.55;64.33;95312.56;5010421;28;20184;-92
2022/04/15 02:55:25;;;;;;;51.20;47.50;;;;;;;6.89;64.25;95221.00;5006700;28;20178;-92
2022/04/15 02:57:51;;;;;;;49.63;46.20;;;;;;;7.47;64.47;95311.84;5003124;28;20259;-92
2022/04/15 03:00:17;;;;;;;47.13;43.30;;;;;;;7.10;64.29;95270.81;5024450;28;20553;-91
2022/04/15 03:02:43;;;;;;;43.97;40.80;;;;;;;7.22;64.72;95284.31;5007330;28;20224;-92
2022/04/15 03:05:09;;;;;;;36.60;33.70;;;;;;;7.01;65.02;95266.66;5001071;28;20384;-92
2022/04/15 03:07:35;;;;;;;32.50;29.50;;;;;;;7.00;65.03;95267.69;5005265;28;20168;-92
2022/04/15 03:10:01;;;;;;;34.13;30.93;;;;;;;6.87;65.33;95244.72;5025697;28;20171;-92
2022/04/15 03:12:26;;;;;;;34.37;30.90;;;;;;;7.08;65.14;95278.06;5009847;28;20176;-92
2022/04/15 03:14:53;;;;;;;30.07;27.20;;;;;;;7.18;64.92;95296.94;5007912;28;20176;-91
2022/04/15 03:17:18;;;;;;;32.00;28.50;;;;;;;6.81;65.35;95242.84;5025011;28;20233;-92
2022/04/15 03:19:44;;;;;;;27.47;25.03;;;;;;;6.78;65.07;95235.31;5005976;28;20275;-92
2022/04/15 03:22:09;;;;;;;24.57;21.93;;;;;;;6.50;64.81;95197.66;5008339;28;20250;-92
2022/04/15 03:24:35;;;;;;;24.60;21.67;;;;;;;6.73;65.23;95228.03;5007700;28;20672;-92
2022/04/15 03:27:00;;;;;;;27.67;22.03;;;;;;;6.59;65.48;95220.94;5000340;28;20185;-93
2022/04/15 03:29:25;;;;;;;24.63;21.23;;;;;;;6.52;65.80;95209.56;5028239;28;20179;-92
2022/04/15 03:31:51;;;;;;;25.80;19.40;;;;;;;7.17;65.99;95326.75;5021189;28;20251;-92
2022/04/15 03:34:16;;;;;;;21.50;19.47;;;;;;;6.55;65.86;95239.78;5006918;28;20258;-92
2022/04/15 03:36:42;;;;;;;20.90;18.43;;;;;;;6.52;65.78;95225.25;5013160;28;20594;-92
2022/04/15 03:39:07;;;;;;;19.87;17.83;;;;;;;6.70;65.65;95262.38;5008651;28;20168;-92
2022/04/15 03:41:33;;;;;;;17.60;15.33;;;;;;;6.69;65.71;95275.63;5016524;28;20584;-92
2022/04/15 03:43:59;;;;;;;17.53;15.87;;;;;;;6.28;65.95;95210.59;5007058;28;20183;-91
2022/04/15 03:46:25;;;;;;;18.53;14.37;;;;;;;6.96;65.92;95319.56;5010920;28;20692;-91
2022/04/15 03:48:50;;;;;;;15.90;13.80;;;;;;;6.77;65.50;95294.69;5012152;28;20181;-91
2022/04/15 03:51:15;;;;;;;21.67;13.13;;;;;;;6.50;65.72;95261.22;5017280;28;20210;-90
2022/04/15 03:53:41;;;;;;;19.33;12.60;;;;;;;6.61;66.13;95278.31;5005969;28;20212;-87
2022/04/15 03:56:07;;;;;;;19.13;12.73;;;;;;;6.86;65.88;95310.31;5025387;28;20226;-89
2022/04/15 03:58:34;;;;;;;15.50;13.40;;;;;;;6.78;66.04;95301.53;5008749;28;20276;-89
2022/04/15 04:01:04;;;;;;;19.77;14.47;;;;;;;7.10;65.79;95337.09;5028621;28;20196;-87
2022/04/15 04:03:31;;;;;;;20.37;14.17;;;;;;;6.64;65.70;95257.03;5019193;28;20212;-89
2022/04/15 04:05:56;;;;;;;25.57;16.70;;;;;;;6.94;65.92;95297.97;5004817;28;20682;-89
2022/04/15 04:08:22;;;;;;;20.90;18.30;;;;;;;6.96;65.57;95293.38;5007278;28;20180;-88
2022/04/15 04:10:47;;;;;;;22.03;18.93;;;;;;;7.31;65.41;95335.59;5006779;28;20677;-89
2022/04/15 04:13:12;;;;;;;40.37;20.80;;;;;;;6.84;65.47;95268.63;5004296;28;20579;-88
2022/04/15 04:15:38;;;;;;;32.53;23.13;;;;;;;7.10;65.69;95302.25;5008549;28;20223;-88
2022/04/15 04:18:03;;;;;;;24.63;21.03;;;;;;;7.17;65.28;95301.38;5010473;28;20279;-88
2022/04/15 04:20:30;;;;;;;23.93;19.67;;;;;;;7.35;65.11;95316.72;5005205;28;20464;-88
2022/04/15 04:22:56;;;;;;;31.50;20.93;;;;;;;7.41;64.75;95313.41;5022190;28;20175;-86
2022/04/15 04:25:21;;;;;;;30.23;22.60;;;;;;;7.62;64.56;95310.03;5008730;28;20240;-89
2022/04/15 04:27:47;;;;;;;33.87;24.90;;;;;;;8.27;63.14;95353.81;5004312;28;20267;-89
2022/04/15 04:30:13;;;;;;;33.37;29.47;;;;;;;8.52;61.86;95314.97;5004610;28;20262;-88
2022/04/15 04:32:39;;;;;;;42.67;34.43;;;;;;;9.21;59.64;95333.56;5014035;28;20564;-88
2022/04/15 04:35:06;;;;;;;50.03;43.60;;;;;;;9.85;58.33;95344.72;5008828;28;20214;-87
2022/04/15 04:37:31;;;;;;;55.57;43.63;;;;;;;10.12;56.00;95343.81;5009600;28;20176;-87
2022/04/15 04:39:57;;;;;;;47.93;41.17;;;;;;;10.29;55.37;95368.00;5007852;28;20199;-89
2022/04/15 04:42:22;;;;;;;56.37;48.60;;;;;;;10.35;55.31;95369.88;5011821;28;20199;-90
2022/04/15 04:44:49;;;;;;;733.03;356.80;;;;;;;10.02;54.27;95288.16;5013939;28;20172;-88
2022/04/15 04:47:14;;;;;;;1999.90;999.90;;;;;;;10.47;53.54;95307.75;5021220;28;20230;-93
2022/04/15 04:49:40;;;;;;;1999.90;999.90;;;;;;;10.59;52.61;95271.94;5009000;28;21022;-89
2022/04/15 04:52:06;;;;;;;1999.90;999.90;;;;;;;11.14;51.75;95269.16;5027324;28;20203;-88
2022/04/15 04:54:31;;;;;;;1999.90;999.90;;;;;;;12.05;50.29;95330.66;5025446;28;20165;-87
2022/04/15 04:56:57;;;;;;;1999.90;999.90;;;;;;;12.80;47.58;95329.09;5003962;28;20242;-88
2022/04/15 04:59:25;;;;;;;1999.90;999.90;;;;;;;13.41;45.42;95326.63;5024592;28;20167;-88
2022/04/15 05:01:51;;;;;;;1999.90;999.90;;;;;;;14.73;43.41;95381.69;5018365;28;20184;-88
2022/04/15 05:04:17;;;;;;;1999.90;999.90;;;;;;;15.21;41.44;95351.69;5021343;28;20176;-88
2022/04/15 05:06:43;;;;;;;1999.90;999.90;;;;;;;15.90;40.04;95355.47;5022283;28;20172;-89
2022/04/15 05:09:09;;;;;;;1999.90;999.90;;;;;;;16.36;38.59;95305.97;5003790;28;20165;-89
2022/04/15 05:11:34;;;;;;;558.77;502.90;;;;;;;17.44;37.55;95351.09;5003771;28;20267;-89
2022/04/15 05:14:00;;;;;;;603.08;545.42;;;;;;;18.44;36.70;95380.31;5022223;28;20168;-89
2022/04/15 05:16:25;;;;;;;435.48;404.25;;;;;;;18.82;34.82;95312.78;5004482;28;20171;-89
2022/04/15 05:18:50;;;;;;;164.23;152.50;;;;;;;19.89;33.51;95381.34;5000549;28;20238;-88
2022/04/15 05:21:16;;;;;;;32.10;18.42;;;;;;;19.92;33.02;95327.38;5001849;28;20195;-89
2022/04/15 05:23:42;;;;;;;26.58;8.32;;;;;;;20.18;31.24;95330.22;5006524;28;20594;-88
2022/04/15 05:26:07;;;;;;;19.17;7.55;;;;;;;20.49;31.94;95315.19;5008038;28;20195;-88
2022/04/15 05:28:35;;;;;;;25.10;8.40;;;;;;;20.64;30.88;95305.34;5001715;28;20172;-88
2022/04/15 05:31:02;;;;;;;29.60;7.47;;;;;;;21.25;30.83;95380.50;5027292;28;20163;-88
2022/04/15 05:33:28;;;;;;;15.15;7.07;;;;;;;21.37;29.02;95334.69;5010251;28;20169;-89
2022/04/15 05:35:53;;;;;;;15.05;7.65;;;;;;;21.87;27.88;95319.72;5024526;28;20172;-89
2022/04/15 05:38:18;;;;;;;19.15;7.60;;;;;;;22.79;27.12;95323.78;4999240;28;20705;-89
2022/04/15 05:40:44;;;;;;;16.90;7.70;;;;;;;23.35;26.59;95326.97;5004625;28;20195;-89
2022/04/15 05:43:09;;;;;;;14.85;7.75;;;;;;;23.67;25.51;95318.44;5024409;28;20256;-88
2022/04/15 05:45:35;;;;;;;18.48;9.25;;;;;;;24.36;25.74;95323.44;5002629;28;20652;-89
2022/04/15 05:48:00;;;;;;;231.65;218.20;;;;;;;24.78;25.02;95317.31;5002684;28;20167;-89
2022/04/15 05:50:26;;;;;;;1999.90;999.90;;;;;;;25.21;24.25;95336.16;5003191;28;20247;-90
2022/04/15 05:52:51;;;;;;;1999.90;999.90;;;;;;;25.70;23.90;95318.72;5002148;28;20233;-90
2022/04/15 05:55:17;;;;;;;1999.90;999.90;;;;;;;26.10;23.25;95357.75;4998083;28;20175;-90
2022/04/15 05:57:42;;;;;;;1999.90;999.90;;;;;;;26.46;22.83;95355.25;5024410;28;20177;-88
2022/04/15 06:00:09;;;;;;;1999.90;999.90;;;;;;;26.89;22.88;95345.75;5016105;28;20704;-89
2022/04/15 06:02:35;;;;;;;1999.90;999.90;;;;;;;27.05;21.02;95340.88;5031061;28;20240;-90
2022/04/15 06:05:01;;;;;;;1999.90;999.90;;;;;;;27.13;22.27;95329.34;5005994;28;20570;-90
2022/04/15 06:07:26;;;;;;;1999.90;999.90;;;;;;;27.74;21.71;95368.56;5011711;28;20179;-91
2022/04/15 06:09:51;;;;;;;1999.90;999.90;;;;;;;27.65;21.14;95324.41;5008489;28;20214;-91
2022/04/15 06:12:21;;;;;;;1999.90;999.90;;;;;;;28.00;20.75;95326.25;5037061;28;21014;-89
2022/04/15 06:14:47;;;;;;;1999.90;999.90;;;;;;;28.42;20.21;95356.63;5019132;28;20204;-89
2022/04/15 06:17:13;;;;;;;1999.90;999.90;;;;;;;28.07;20.58;95314.97;5031424;28;20195;-91
2022/04/15 06:19:38;;;;;;;1999.90;999.90;;;;;;;28.12;20.70;95287.75;5029752;28;20206;-92
2022/04/15 06:22:04;;;;;;;1999.90;999.90;;;;;;;27.67;20.02;95327.59;5037160;28;20164;-89
2022/04/15 06:24:29;;;;;;;1999.90;999.90;;;;;;;27.37;21.00;95348.00;5028647;28;20192;-88
2022/04/15 06:26:55;;;;;;;1999.90;999.90;;;;;;;27.18;21.67;95358.97;5015354;28;20282;-90
2022/04/15 06:29:20;;;;;;;1999.90;999.90;;;;;;;26.36;21.39;95298.72;5015289;28;20179;-91
2022/04/15 06:31:46;;;;;;;1999.90;999.90;;;;;;;26.01;21.91;95332.53;5011577;28;20169;-87
2022/04/15 06:34:12;;;;;;;1999.90;999.90;;;;;;;25.56;22.84;95351.84;5011239;28;20217;-87
2022/04/15 06:36:37;;;;;;;1999.90;999.90;;;;;;;24.62;22.98;95298.94;5002361;28;20192;-90
2022/04/15 06:39:03;;;;;;;1999.90;999.90;;;;;;;24.29;25.22;95295.28;5009408;28;20266;-90
2022/04/15 06:41:28;;;;;;;1999.90;999.90;;;;;;;24.36;24.32;95287.66;5002878;28;20226;-88
2022/04/15 06:43:54;;;;;;;1999.90;999.90;;;;;;;24.37;23.70;95321.56;5007983;28;20179;-87
2022/04/15 06:46:19;;;;;;;1999.90;999.90;;;;;;;23.71;24.00;95322.16;5022888;28;20713;-90
2022/04/15 06:48:44;;;;;;;1999.90;999.90;;;;;;;23.13;24.37;95291.66;5005789;28;20172;-91
2022/04/15 06:51:10;;;;;;;1999.90;999.90;;;;;;;22.46;25.18;95325.25;5002184;28;20179;-87
2022/04/15 06:53:35;;;;;;;1999.90;999.90;;;;;;;22.09;27.73;95272.75;5005094;28;20569;-89
2022/04/15 06:56:01;;;;;;;1999.90;999.90;;;;;;;22.62;26.97;95334.84;5004381;28;20182;-87
2022/04/15 06:58:26;;;;;;;1999.90;999.90;;;;;;;21.73;26.55;95212.22;5020625;28;20172;-88
2022/04/15 07:00:53;;;;;;;1999.90;999.90;;;;;;;21.48;26.44;95330.97;5021703;28;20219;-88
2022/04/15 07:03:18;;;;;;;1999.90;999.90;;;;;;;21.29;27.90;95322.63;4997436;28;20220;-88
2022/04/15 07:05:44;;;;;;;1999.90;999.90;;;;;;;21.06;27.23;95301.69;5020965;28;20171;-87
2022/04/15 07:08:10;;;;;;;1999.90;999.90;;;;;;;20.78;28.71;95228.00;5009043;28;20196;-89
2022/04/15 07:10:37;;;;;;;1999.90;999.90;;;;;;;21.77;27.52;95309.78;5006739;28;20195;-88
2022/04/15 07:13:03;;;;;;;1999.90;999.90;;;;;;;22.43;28.77;95344.56;5005453;28;20180;-89
2022/04/15 07:15:29;;;;;;;427.15;384.50;;;;;;;22.58;27.78;95302.38;5021651;28;20231;-91
2022/04/15 07:17:55;;;;;;;1999.90;999.90;;;;;;;22.74;26.50;95288.91;5008020;28;20183;-93
2022/04/15 07:20:22;;;;;;;1999.90;999.90;;;;;;;22.50;25.09;95281.47;5001736;28;20203;-90
2022/04/15 07:23:42;;;;;;;1999.90;999.90;;;;;;;22.52;25.07;95333.00;5022306;28;20168;-92
2022/04/15 07:26:07;;;;;;;1999.90;999.90;;;;;;;22.44;27.58;95305.91;5018422;28;20180;-90
2022/04/15 07:28:32;;;;;;;1999.90;999.90;;;;;;;22.29;24.96;95279.16;5004437;28;20177;-89
2022/04/15 07:30:58;;;;;;;1999.90;999.90;;;;;;;22.39;25.08;95293.34;5018910;28;20180;-91
2022/04/15 07:33:23;;;;;;;1999.90;999.90;;;;;;;22.40;26.19;95319.06;5035636;28;20176;-90
2022/04/15 07:35:49;;;;;;;1999.90;999.90;;;;;;;22.31;26.79;95301.94;5010997;28;20654;-86
2022/04/15 07:38:16;;;;;;;1999.90;999.90;;;;;;;22.12;25.90;95317.03;5007507;28;20283;-88
2022/04/15 07:40:41;;;;;;;1999.90;999.90;;;;;;;21.64;27.73;95288.88;5001783;28;20677;-87
2022/04/15 07:43:06;;;;;;;1999.90;999.90;;;;;;;21.48;26.93;95292.66;5006006;28;20183;-87
2022/04/15 07:45:32;;;;;;;1999.90;999.90;;;;;;;21.35;28.60;95259.16;5009936;28;20298;-87
2022/04/15 07:47:57;;;;;;;1999.90;999.90;;;;;;;21.48;27.04;95289.97;5003713;28;20179;-87
2022/04/15 07:50:25;;;;;;;1999.90;999.90;;;;;;;21.63;27.28;95255.13;5001107;28;20220;-88
2022/04/15 07:53:00;;;;;;;1999.90;999.90;;;;;;;21.68;25.27;95247.09;5014985;28;20577;-87
2022/04/15 07:55:28;;;;;;;1999.90;999.90;;;;;;;21.90;26.70;95244.06;5023795;28;20183;-86
2022/04/15 07:57:54;;;;;;;1999.90;999.90;;;;;;;22.47;25.07;95324.97;5009986;28;20196;-88
2022/04/15 08:00:20;;;;;;;1999.90;999.90;;;;;;;22.39;24.45;95305.94;5008779;28;20345;-85
2022/04/15 08:02:46;;;;;;;1999.90;999.90;;;;;;;22.25;25.24;95243.19;5026294;28;20223;-85
2022/04/15 08:05:14;;;;;;;1999.90;999.90;;;;;;;22.77;23.75;95286.47;5011440;28;20186;-86
2022/04/15 08:07:40;;;;;;;1999.90;999.90;;;;;;;22.53;24.14;95274.75;5024508;28;20258;-86
2022/04/15 08:10:06;;;;;;;1999.90;999.90;;;;;;;23.07;25.99;95306.19;5015837;28;20272;-87
2022/04/15 08:12:32;;;;;;;1999.90;999.90;;;;;;;22.92;24.57;95291.75;5032418;28;20726;-88
2022/04/15 08:14:59;;;;;;;1999.90;999.90;;;;;;;22.41;26.90;95207.16;5009905;28;20188;-84
2022/04/15 08:17:24;;;;;;;1999.90;999.90;;;;;;;23.01;27.84;95291.16;5019987;28;20177;-90
2022/04/15 08:19:50;;;;;;;1999.90;999.90;;;;;;;22.83;24.07;95222.81;5031723;28;20186;-86
2022/04/15 08:22:15;;;;;;;1999.90;999.90;;;;;;;23.35;23.75;95275.13;5009746;28;20179;-88
2022/04/15 08:24:42;;;;;;;1999.90;999.90;;;;;;;23.11;23.75;95258.88;5025590;28;20219;-87
2022/04/15 08:27:11;;;;;;;1999.90;999.90;;;;;;;23.23;24.40;95272.78;5025933;28;20164;-89
2022/04/15 08:29:38;;;;;;;1999.90;999.90;;;;;;;23.41;24.11;95301.66;5020500;28;20189;-88
2022/04/15 08:32:08;;;;;;;1999.90;999.90;;;;;;;23.05;25.46;95273.44;5011156;28;20174;-89
2022/04/15 08:34:37;;;;;;;1999.90;999.90;;;;;;;23.27;24.24;95274.59;5004323;28;20659;-87
2022/04/15 08:37:03;;;;;;;1999.90;999.90;;;;;;;23.36;24.91;95274.81;5019729;28;21470;-87
2022/04/15 08:39:28;;;;;;;1999.90;999.90;;;;;;;22.89;24.22;95214.44;5000969;28;20206;-87
2022/04/15 08:41:56;;;;;;;1999.90;999.90;;;;;;;23.12;26.68;95237.09;5025377;28;20684;-87
2022/04/15 08:44:23;;;;;;;1999.90;999.90;;;;;;;22.85;25.33;95213.41;5024501;28;20172;-87
2022/04/15 08:46:50;;;;;;;1999.90;999.90;;;;;;;22.24;24.51;95202.16;5007312;28;20176;-87
2022/04/15 08:49:19;;;;;;;1999.90;999.90;;;;;;;21.35;25.87;95158.19;5008860;28;20169;-89
2022/04/15 08:51:52;;;;;;;1999.90;999.90;;;;;;;21.72;26.78;95194.53;5021303;28;20168;-88
2022/04/15 08:54:18;;;;;;;1999.90;999.90;;;;;;;21.58;25.81;95143.38;5016766;28;20173;-88
2022/04/15 08:56:44;;;;;;;1999.90;999.90;;;;;;;21.42;25.50;95187.38;5009642;28;20540;-89
2022/04/15 08:59:10;;;;;;;1999.90;999.90;;;;;;;22.16;27.00;95262.53;5023372;28;20184;-90
2022/04/15 09:01:35;;;;;;;1999.90;999.90;;;;;;;22.56;27.81;95229.38;5008465;28;20188;-88
2022/04/15 09:04:03;;;;;;;1999.90;999.90;;;;;;;23.19;26.16;95226.03;5012147;28;20274;-87
2022/04/15 09:06:31;;;;;;;1999.90;999.90;;;;;;;23.58;25.82;95232.19;5008066;28;20172;-84
2022/04/15 09:09:04;;;;;;;1999.90;999.90;;;;;;;23.72;26.63;95207.31;5005381;28;20624;-91
2022/04/15 09:11:35;;;;;;;1999.90;999.90;;;;;;;23.50;27.25;95221.25;4999107;28;20610;-87
2022/04/15 09:14:29;;;;;;;1999.90;999.90;;;;;;;23.53;27.42;95226.84;5002567;28;20165;-92
2022/04/15 09:16:54;;;;;;;1999.90;999.90;;;;;;;22.53;26.14;95202.28;5005175;28;20256;-88
2022/04/15 09:19:20;;;;;;;1999.90;999.90;;;;;;;22.25;25.94;95189.56;5002835;28;20184;-89
2022/04/15 09:21:51;;;;;;;1999.90;999.90;;;;;;;21.88;27.12;95144.38;5007470;28;20192;-88
2022/04/15 09:24:17;;;;;;;1999.90;999.90;;;;;;;22.01;27.75;95167.94;5007241;28;20194;-88
2022/04/15 09:26:46;;;;;;;1999.90;999.90;;;;;;;21.84;27.02;95146.78;5005446;28;20179;-85
2022/04/15 09:29:15;;;;;;;1999.90;999.90;;;;;;;22.34;30.47;95204.00;5007419;28;20269;-84
2022/04/15 09:31:44;;;;;;;1999.90;999.90;;;;;;;22.54;29.29;95202.03;5006352;28;20233;-86
2022/04/15 09:34:10;;;;;;;1999.90;999.90;;;;;;;22.25;26.99;95194.91;5010768;28;20223;-84
2022/04/15 09:36:37;;;;;;;1999.90;999.90;;;;;;;22.01;26.73;95163.38;5023591;28;20277;-87
2022/04/15 09:39:11;;;;;;;1999.90;999.90;;;;;;;22.02;28.57;95191.81;5006890;28;20159;-84
2022/04/15 09:41:57;;;;;;;1999.90;999.90;;;;;;;22.07;26.92;95186.41;5021819;28;20192;-84
2022/04/15 09:44:31;;;;;;;1999.90;999.90;;;;;;;21.86;28.83;95170.66;5019883;28;20191;-89
2022/04/15 09:46:57;;;;;;;1999.90;999.90;;;;;;;21.51;27.07;95142.88;5005921;28;20668;-87
2022/04/15 09:49:25;;;;;;;1999.90;999.90;;;;;;;21.60;27.79;95164.56;5006540;28;20183;-88
2022/04/15 09:51:53;;;;;;;1999.90;999.90;;;;;;;21.59;28.45;95179.03;5004028;28;20672;-88
2022/04/15 09:54:19;;;;;;;1999.90;999.90;;;;;;;21.73;28.09;95162.09;5004117;28;20175;-88
2022/04/15 09:56:47;;;;;;;1999.90;999.90;;;;;;;21.28;27.10;95100.59;5009631;28;20182;-87
2022/04/15 09:59:15;;;;;;;1999.90;999.90;;;;;;;21.38;27.39;95124.69;5007383;28;20172;-85
2022/04/15 10:01:45;;;;;;;1999.90;999.90;;;;;;;21.24;26.36;95112.94;5025689;28;20290;-89
2022/04/15 10:04:12;;;;;;;1999.90;999.90;;;;;;;21.12;28.96;95153.34;5004545;28;20305;-86
2022/04/15 10:06:39;;;;;;;1999.90;999.90;;;;;;;20.72;30.74;95084.59;5008903;28;20191;-90
2022/04/15 10:09:06;;;;;;;1999.90;999.90;;;;;;;21.13;27.96;95127.38;5013824;28;20187;-89
2022/04/15 10:11:35;;;;;;;1999.90;999.90;;;;;;;21.08;30.45;95104.09;5032211;28;20164;-90
2022/04/15 10:14:02;;;;;;;1587.43;828.80;;;;;;;21.45;31.05;95133.22;5002866;28;20614;-89
2022/04/15 10:16:30;;;;;;;1999.90;999.90;;;;;;;21.46;26.94;95132.97;5007614;28;20179;-91
2022/04/15 10:19:01;;;;;;;1999.90;999.90;;;;;;;20.97;26.81;95062.34;5002661;28;20255;-92
2022/04/15 10:21:30;;;;;;;1999.90;999.90;;;;;;;20.75;28.23;95064.53;5008818;28;20200;-92
2022/04/15 10:23:56;;;;;;;1999.90;999.90;;;;;;;20.38;27.92;95028.16;5000635;28;20191;-91
2022/04/15 10:26:23;;;;;;;1999.90;999.90;;;;;;;20.74;28.94;95095.84;5002530;28;20175;-92
2022/04/15 10:28:48;;;;;;;1999.90;999.90;;;;;;;20.41;29.94;95038.28;5003188;28;20173;-91
2022/04/15 10:31:17;;;;;;;1999.90;999.90;;;;;;;20.59;29.06;95069.84;5002710;28;20188;-92
2022/04/15 10:33:49;;;;;;;1999.90;999.90;;;;;;;20.91;31.07;95109.75;4995868;28;20173;-91
2022/04/15 10:36:23;;;;;;;538.95;484.58;;;;;;;20.99;27.86;95105.72;4982052;28;20654;-92
2022/04/15 10:39:06;;;;;;;1999.90;999.90;;;;;;;20.96;28.64;95108.91;5019276;28;20666;-92
2022/04/15 10:41:41;;;;;;;1999.90;999.90;;;;;;;20.96;28.12;95092.84;5003591;28;20192;-91
2022/04/15 10:44:10;;;;;;;1999.90;999.90;;;;;;;20.55;29.04;95031.34;5008809;28;20172;-91
2022/04/15 10:46:37;;;;;;;1999.90;999.90;;;;;;;20.69;27.83;95048.44;5007447;28;20176;-92
2022/04/15 10:49:20;;;;;;;1999.90;999.90;;;;;;;20.85;29.36;95057.25;5007228;28;20168;-92
2022/04/15 10:51:46;;;;;;;1999.90;999.90;;;;;;;20.51;28.92;94994.69;5031558;28;20545;-90
2022/04/15 10:54:36;;;;;;;1999.90;999.90;;;;;;;21.12;27.09;95080.25;5013695;28;20256;-92
2022/04/15 10:57:11;;;;;;;1999.90;999.90;;;;;;;20.54;28.59;95004.88;5008878;28;20171;-92
2022/04/15 11:02:26;;;;;;;1999.90;999.90;;;;;;;20.76;26.08;95047.41;5024789;28;20306;-92
2022/04/15 11:04:52;;;;;;;1999.90;999.90;;;;;;;20.64;30.63;95015.56;5010745;28;20211;-92
2022/04/15 11:07:29;;;;;;;1999.90;999.90;;;;;;;20.77;30.21;95023.03;5009863;28;20184;-93